createdAt,value
2022-11-08T00:00:02.979Z,953.72
2022-11-08T00:01:02.982Z,953.68
2022-11-08T00:02:03.107Z,953.69
2022-11-08T00:03:03.024Z,953.67
2022-11-08T00:04:03.136Z,953.64
2022-11-08T00:05:03.097Z,953.63
2022-11-08T00:06:03.087Z,953.63
2022-11-08T00:07:03.069Z,953.68
2022-11-08T00:08:03.056Z,953.68
2022-11-08T00:09:03.041Z,953.68
2022-11-08T00:10:03.032Z,953.73
2022-11-08T00:11:03.016Z,953.71
2022-11-08T00:12:03.002Z,953.71
2022-11-08T00:13:02.988Z,953.7
2022-11-08T00:14:02.995Z,953.74
2022-11-08T00:15:02.962Z,953.69
2022-11-08T00:16:02.947Z,953.71
2022-11-08T00:17:02.933Z,953.69
2022-11-08T00:18:02.921Z,953.69
2022-11-08T00:19:02.907Z,953.69
2022-11-08T00:20:02.915Z,953.69
2022-11-08T00:21:02.880Z,953.71
2022-11-08T00:22:02.864Z,953.69
2022-11-08T00:23:02.853Z,953.68
2022-11-08T00:24:02.840Z,953.71
2022-11-08T00:25:02.828Z,953.68
2022-11-08T00:26:02.813Z,953.69
2022-11-08T00:27:02.822Z,953.67
2022-11-08T00:28:02.783Z,953.65
2022-11-08T00:29:02.774Z,953.64
2022-11-08T00:30:02.759Z,953.58
2022-11-08T00:31:02.747Z,953.62
2022-11-08T00:32:02.730Z,953.62
2022-11-08T00:33:02.720Z,953.63
2022-11-08T00:34:02.701Z,953.66
2022-11-08T00:35:02.690Z,953.62
2022-11-08T00:36:02.721Z,953.65
2022-11-08T00:37:02.674Z,953.63
2022-11-08T00:38:02.669Z,953.64
2022-11-08T00:39:02.636Z,953.62
2022-11-08T00:40:02.622Z,953.59
2022-11-08T00:41:02.609Z,953.57
2022-11-08T00:42:02.594Z,953.54
2022-11-08T00:43:02.581Z,953.56
2022-11-08T00:44:02.599Z,953.51
2022-11-08T00:45:02.554Z,953.52
2022-11-08T00:46:02.537Z,953.55
2022-11-08T00:47:02.527Z,953.55
2022-11-08T00:48:02.515Z,953.57
2022-11-08T00:49:02.498Z,953.52
2022-11-08T00:50:02.483Z,953.51
2022-11-08T00:51:02.472Z,953.52
2022-11-08T00:52:02.481Z,953.51
2022-11-08T00:53:02.445Z,953.52
2022-11-08T00:54:02.471Z,953.54
2022-11-08T00:55:02.421Z,953.51
2022-11-08T00:56:02.407Z,953.52
2022-11-08T00:57:02.385Z,953.51
2022-11-08T00:58:02.375Z,953.49
2022-11-08T00:59:02.362Z,953.48
2022-11-08T01:00:02.346Z,953.46
2022-11-08T01:01:02.371Z,953.44
2022-11-08T01:02:02.580Z,953.48
2022-11-08T01:03:02.304Z,953.48
2022-11-08T01:04:02.289Z,953.46
2022-11-08T01:05:02.277Z,953.45
2022-11-08T01:06:02.263Z,953.45
2022-11-08T01:07:02.246Z,953.39
2022-11-08T01:08:02.257Z,953.44
2022-11-08T01:09:02.220Z,953.44
2022-11-08T01:10:02.205Z,953.38
2022-11-08T01:11:02.194Z,953.39
2022-11-08T01:12:02.177Z,953.39
2022-11-08T01:13:02.172Z,953.41
2022-11-08T01:14:02.150Z,953.38
2022-11-08T01:15:02.172Z,953.44
2022-11-08T01:16:02.122Z,953.41
2022-11-08T01:17:02.110Z,953.41
2022-11-08T01:18:02.096Z,953.42
2022-11-08T01:19:02.081Z,953.43
2022-11-08T01:20:02.065Z,953.44
2022-11-08T01:21:02.058Z,953.45
2022-11-08T01:22:02.040Z,953.43
2022-11-08T01:23:02.024Z,953.46
2022-11-08T01:24:02.042Z,953.5
2022-11-08T01:25:01.997Z,953.46
2022-11-08T01:26:01.987Z,953.42
2022-11-08T01:27:01.972Z,953.42
2022-11-08T01:28:01.954Z,953.46
2022-11-08T01:29:01.943Z,953.47
2022-11-08T01:30:01.934Z,953.44
2022-11-08T01:31:01.915Z,953.42
2022-11-08T01:32:01.901Z,953.4
2022-11-08T01:33:01.884Z,953.36
2022-11-08T01:34:01.869Z,953.37
2022-11-08T01:35:01.860Z,953.27
2022-11-08T01:36:01.840Z,953.36
2022-11-08T01:37:01.830Z,953.33
2022-11-08T01:38:01.814Z,953.29
2022-11-08T01:39:01.803Z,953.28
2022-11-08T01:40:01.826Z,953.22
2022-11-08T01:41:01.773Z,953.17
2022-11-08T01:42:01.759Z,953.17
2022-11-08T01:43:01.744Z,953.21
2022-11-08T01:44:01.729Z,953.2
2022-11-08T01:45:01.719Z,953.14
2022-11-08T01:46:01.703Z,953.17
2022-11-08T01:47:01.687Z,953.23
2022-11-08T01:48:01.672Z,953.16
2022-11-08T01:49:01.659Z,953.18
2022-11-08T01:50:01.658Z,953.18
2022-11-08T01:51:01.630Z,953.19
2022-11-08T01:52:01.617Z,953.17
2022-11-08T01:53:01.602Z,953.17
2022-11-08T01:54:01.594Z,953.14
2022-11-08T01:55:01.576Z,953.11
2022-11-08T01:56:01.583Z,953.12
2022-11-08T01:57:01.551Z,953.1
2022-11-08T01:58:01.533Z,953.13
2022-11-08T01:59:01.520Z,953.07
2022-11-08T02:00:01.503Z,953.11
2022-11-08T02:01:01.538Z,953.08
2022-11-08T02:02:01.590Z,953.05
2022-11-08T02:03:01.464Z,953.05
2022-11-08T02:04:01.451Z,953.05
2022-11-08T02:05:01.432Z,953.04
2022-11-08T02:06:01.424Z,952.95
2022-11-08T02:07:01.404Z,952.96
2022-11-08T02:08:01.390Z,952.92
2022-11-08T02:09:01.375Z,952.9
2022-11-08T02:10:01.362Z,952.89
2022-11-08T02:11:01.350Z,952.88
2022-11-08T02:12:01.359Z,952.88
2022-11-08T02:13:04.728Z,952.87
2022-11-08T02:14:01.306Z,952.84
2022-11-08T02:15:01.291Z,952.86
2022-11-08T02:16:01.278Z,952.87
2022-11-08T02:17:01.263Z,952.83
2022-11-08T02:18:01.251Z,952.84
2022-11-08T02:19:01.239Z,952.84
2022-11-08T02:20:01.221Z,952.81
2022-11-08T02:21:01.215Z,952.78
2022-11-08T02:22:01.197Z,952.8
2022-11-08T02:23:01.178Z,952.76
2022-11-08T02:24:01.166Z,952.79
2022-11-08T02:25:01.149Z,952.8
2022-11-08T02:26:01.137Z,952.78
2022-11-08T02:27:01.135Z,952.76
2022-11-08T02:28:01.261Z,952.82
2022-11-08T02:29:01.098Z,952.82
2022-11-08T02:30:01.084Z,952.83
2022-11-08T02:31:01.065Z,952.89
2022-11-08T02:32:01.055Z,952.89
2022-11-08T02:33:01.038Z,952.89
2022-11-08T02:34:01.025Z,952.89
2022-11-08T02:35:01.011Z,952.83
2022-11-08T02:36:00.996Z,952.86
2022-11-08T02:37:00.983Z,952.84
2022-11-08T02:38:00.968Z,952.84
2022-11-08T02:39:00.961Z,952.82
2022-11-08T02:40:00.942Z,952.8
2022-11-08T02:41:00.926Z,952.78
2022-11-08T02:42:00.910Z,952.8
2022-11-08T02:43:00.900Z,952.82
2022-11-08T02:44:00.910Z,952.8
2022-11-08T02:45:00.867Z,952.82
2022-11-08T02:46:00.856Z,952.77
2022-11-08T02:47:00.841Z,952.78
2022-11-08T02:48:00.827Z,952.77
2022-11-08T02:49:00.809Z,952.75
2022-11-08T02:50:00.795Z,952.74
2022-11-08T02:51:00.782Z,952.72
2022-11-08T02:52:00.771Z,952.76
2022-11-08T02:53:00.754Z,952.71
2022-11-08T02:54:00.737Z,952.72
2022-11-08T02:55:00.726Z,952.73
2022-11-08T02:56:00.713Z,952.73
2022-11-08T02:57:00.697Z,952.77
2022-11-08T02:58:00.681Z,952.75
2022-11-08T02:59:00.670Z,952.77
2022-11-08T03:00:00.691Z,952.75
2022-11-08T03:01:00.665Z,952.72
2022-11-08T03:02:00.766Z,952.75
2022-11-08T03:03:00.613Z,952.78
2022-11-08T03:04:00.599Z,952.74
2022-11-08T03:05:00.585Z,952.77
2022-11-08T03:06:00.569Z,952.75
2022-11-08T03:07:00.555Z,952.77
2022-11-08T03:08:00.539Z,952.73
2022-11-08T03:09:00.535Z,952.74
2022-11-08T03:10:00.511Z,952.73
2022-11-08T03:11:00.499Z,952.7
2022-11-08T03:12:00.485Z,952.73
2022-11-08T03:13:00.471Z,952.73
2022-11-08T03:14:00.457Z,952.79
2022-11-08T03:15:00.441Z,952.76
2022-11-08T03:16:00.448Z,952.73
2022-11-08T03:17:00.413Z,952.73
2022-11-08T03:18:00.397Z,952.71
2022-11-08T03:19:00.384Z,952.71
2022-11-08T03:20:00.375Z,952.73
2022-11-08T03:21:00.359Z,952.72
2022-11-08T03:22:00.343Z,952.68
2022-11-08T03:23:00.350Z,952.69
2022-11-08T03:24:00.328Z,952.64
2022-11-08T03:25:00.312Z,952.7
2022-11-08T03:26:00.285Z,952.74
2022-11-08T03:27:00.271Z,952.74
2022-11-08T03:28:00.255Z,952.71
2022-11-08T03:29:00.243Z,952.7
2022-11-08T03:30:00.242Z,952.66
2022-11-08T03:31:00.216Z,952.65
2022-11-08T03:32:00.239Z,952.66
2022-11-08T03:49:15.185Z,952.75
2022-11-08T03:50:15.143Z,952.72
2022-11-08T03:51:15.129Z,952.75
2022-11-08T03:52:15.108Z,952.75
2022-11-08T03:53:15.091Z,952.74
2022-11-08T03:54:15.074Z,952.75
2022-11-08T03:55:15.061Z,952.74
2022-11-08T03:56:15.042Z,952.75
2022-11-08T03:57:15.027Z,952.8
2022-11-08T03:58:15.247Z,952.75
2022-11-08T03:59:14.995Z,952.77
2022-11-08T04:00:14.979Z,952.74
2022-11-08T04:01:15.004Z,952.74
2022-11-08T04:02:15.038Z,952.77
2022-11-08T04:03:14.932Z,952.79
2022-11-08T04:04:14.919Z,952.76
2022-11-08T04:05:14.932Z,952.76
2022-11-08T04:06:14.886Z,952.76
2022-11-08T04:07:14.873Z,952.76
2022-11-08T04:08:15.103Z,952.76
2022-11-08T04:09:19.108Z,952.83
2022-11-08T04:10:14.832Z,952.81
2022-11-08T04:11:14.812Z,952.85
2022-11-08T04:12:14.794Z,952.85
2022-11-08T04:13:14.781Z,952.84
2022-11-08T04:14:14.761Z,952.89
2022-11-08T04:15:14.846Z,952.83
2022-11-08T04:16:17.825Z,952.85
2022-11-08T04:17:14.722Z,952.86
2022-11-08T04:18:14.740Z,952.81
2022-11-08T04:19:14.691Z,952.82
2022-11-08T04:20:14.675Z,952.8
2022-11-08T04:21:14.686Z,952.82
2022-11-08T04:22:14.641Z,952.87
2022-11-08T04:23:14.627Z,952.79
2022-11-08T04:24:14.612Z,952.8
2022-11-08T04:25:14.597Z,952.83
2022-11-08T04:26:14.582Z,952.8
2022-11-08T04:27:14.568Z,952.77
2022-11-08T04:28:14.691Z,952.78
2022-11-08T04:29:14.537Z,952.74
2022-11-08T04:30:14.557Z,952.74
2022-11-08T04:31:14.508Z,952.72
2022-11-08T04:32:14.489Z,952.73
2022-11-08T04:33:14.475Z,952.75
2022-11-08T04:34:14.461Z,952.79
2022-11-08T04:35:14.446Z,952.77
2022-11-08T04:36:14.428Z,952.75
2022-11-08T04:37:14.439Z,952.77
2022-11-08T04:38:14.543Z,952.81
2022-11-08T04:39:14.386Z,952.8
2022-11-08T04:40:14.419Z,952.81
2022-11-08T04:41:14.360Z,952.85
2022-11-08T04:42:14.340Z,952.83
2022-11-08T04:43:14.323Z,952.82
2022-11-08T04:44:14.308Z,952.79
2022-11-08T04:45:14.295Z,952.79
2022-11-08T04:46:14.279Z,952.8
2022-11-08T04:47:14.263Z,952.82
2022-11-08T04:48:14.250Z,952.8
2022-11-08T04:49:14.232Z,952.81
2022-11-08T04:50:14.218Z,952.78
2022-11-08T04:51:14.200Z,952.83
2022-11-08T04:52:14.189Z,952.82
2022-11-08T04:53:14.195Z,952.79
2022-11-08T04:54:14.160Z,952.84
2022-11-08T04:55:14.141Z,952.8
2022-11-08T04:56:14.131Z,952.84
2022-11-08T04:57:14.110Z,952.82
2022-11-08T04:58:14.120Z,952.82
2022-11-08T04:59:14.079Z,952.79
2022-11-08T05:00:14.066Z,952.8
2022-11-08T05:01:14.147Z,952.78
2022-11-08T05:02:14.219Z,952.71
2022-11-08T05:03:14.018Z,952.72
2022-11-08T05:04:14.016Z,952.74
2022-11-08T05:05:14.011Z,952.74
2022-11-08T05:06:13.973Z,952.74
2022-11-08T05:07:13.958Z,952.79
2022-11-08T05:08:13.944Z,952.71
2022-11-08T05:09:13.949Z,952.76
2022-11-08T05:10:13.912Z,952.8
2022-11-08T05:11:13.898Z,952.77
2022-11-08T05:12:13.883Z,952.74
2022-11-08T05:13:13.864Z,952.8
2022-11-08T05:14:13.851Z,952.76
2022-11-08T05:15:13.834Z,952.81
2022-11-08T05:16:13.832Z,952.79
2022-11-08T05:17:13.803Z,952.83
2022-11-08T05:18:13.789Z,952.84
2022-11-08T05:19:13.773Z,952.81
2022-11-08T05:20:13.762Z,952.79
2022-11-08T05:21:13.744Z,952.81
2022-11-08T05:22:13.728Z,952.73
2022-11-08T05:23:13.713Z,952.73
2022-11-08T05:24:13.704Z,952.73
2022-11-08T05:25:13.717Z,952.74
2022-11-08T05:26:13.667Z,952.77
2022-11-08T05:27:13.651Z,952.78
2022-11-08T05:28:13.639Z,952.7
2022-11-08T05:29:13.624Z,952.7
2022-11-08T05:30:13.607Z,952.72
2022-11-08T05:31:13.589Z,952.72
2022-11-08T05:32:13.575Z,952.74
2022-11-08T05:33:13.561Z,952.69
2022-11-08T05:34:13.548Z,952.74
2022-11-08T05:35:13.532Z,952.74
2022-11-08T05:36:13.520Z,952.73
2022-11-08T05:37:13.501Z,952.75
2022-11-08T05:38:13.482Z,952.73
2022-11-08T05:39:13.470Z,952.74
2022-11-08T05:40:13.464Z,952.7
2022-11-08T05:41:13.481Z,952.7
2022-11-08T05:42:13.421Z,952.67
2022-11-08T05:43:13.407Z,952.67
2022-11-08T05:44:13.391Z,952.69
2022-11-08T05:45:13.376Z,952.64
2022-11-08T05:46:13.360Z,952.69
2022-11-08T05:47:13.348Z,952.63
2022-11-08T05:48:13.329Z,952.62
2022-11-08T05:49:13.317Z,952.59
2022-11-08T05:50:16.895Z,952.58
2022-11-08T05:51:13.286Z,952.64
2022-11-08T05:52:13.273Z,952.57
2022-11-08T05:53:13.254Z,952.57
2022-11-08T05:54:13.240Z,952.56
2022-11-08T05:55:13.224Z,952.59
2022-11-08T05:56:13.207Z,952.63
2022-11-08T05:57:13.217Z,952.59
2022-11-08T05:58:13.179Z,952.6
2022-11-08T05:59:13.164Z,952.56
2022-11-08T06:00:13.148Z,952.54
2022-11-08T06:01:13.132Z,952.59
2022-11-08T06:02:13.201Z,952.54
2022-11-08T06:03:13.149Z,952.51
2022-11-08T06:04:13.085Z,952.54
2022-11-08T06:05:13.073Z,952.52
2022-11-08T06:06:13.055Z,952.53
2022-11-08T06:07:13.040Z,952.55
2022-11-08T06:08:13.025Z,952.56
2022-11-08T06:09:13.012Z,952.55
2022-11-08T06:10:12.995Z,952.55
2022-11-08T06:11:12.981Z,952.52
2022-11-08T06:12:12.968Z,952.57
2022-11-08T06:13:12.975Z,952.54
2022-11-08T06:14:13.438Z,952.51
2022-11-08T06:15:12.921Z,952.53
2022-11-08T06:16:12.906Z,952.55
2022-11-08T06:17:12.888Z,952.53
2022-11-08T06:18:12.875Z,952.52
2022-11-08T06:19:12.864Z,952.49
2022-11-08T06:20:12.842Z,952.49
2022-11-08T06:21:12.828Z,952.48
2022-11-08T06:22:12.813Z,952.4
2022-11-08T06:23:12.796Z,952.45
2022-11-08T06:24:12.783Z,952.44
2022-11-08T06:25:12.767Z,952.45
2022-11-08T06:26:12.754Z,952.44
2022-11-08T06:27:12.736Z,952.42
2022-11-08T06:28:12.722Z,952.45
2022-11-08T06:29:12.733Z,952.41
2022-11-08T06:30:12.690Z,952.49
2022-11-08T06:31:12.677Z,952.43
2022-11-08T06:32:12.662Z,952.43
2022-11-08T06:33:12.643Z,952.45
2022-11-08T06:34:12.632Z,952.44
2022-11-08T06:35:12.614Z,952.46
2022-11-08T06:36:12.598Z,952.43
2022-11-08T06:37:12.582Z,952.37
2022-11-08T06:38:12.569Z,952.38
2022-11-08T06:39:12.555Z,952.42
2022-11-08T06:40:12.537Z,952.51
2022-11-08T06:41:12.521Z,952.47
2022-11-08T06:42:12.508Z,952.47
2022-11-08T06:43:16.554Z,952.45
2022-11-08T06:44:12.482Z,952.43
2022-11-08T06:45:12.484Z,952.44
2022-11-08T06:46:12.452Z,952.43
2022-11-08T06:47:12.432Z,952.45
2022-11-08T06:48:12.420Z,952.45
2022-11-08T06:49:12.399Z,952.44
2022-11-08T06:50:12.387Z,952.43
2022-11-08T06:51:12.368Z,952.42
2022-11-08T06:52:12.356Z,952.43
2022-11-08T06:53:12.339Z,952.45
2022-11-08T06:54:16.877Z,952.4
2022-11-08T06:55:12.310Z,952.41
2022-11-08T06:56:12.296Z,952.36
2022-11-08T06:57:12.278Z,952.36
2022-11-08T06:58:12.267Z,952.35
2022-11-08T06:59:12.254Z,952.42
2022-11-08T07:00:12.236Z,952.42
2022-11-08T07:01:12.293Z,952.42
2022-11-08T07:02:12.252Z,952.45
2022-11-08T07:03:12.266Z,952.45
2022-11-08T07:04:12.179Z,952.45
2022-11-08T07:05:12.166Z,952.46
2022-11-08T07:06:12.150Z,952.44
2022-11-08T07:07:12.132Z,952.49
2022-11-08T07:08:12.121Z,952.46
2022-11-08T07:09:12.105Z,952.45
2022-11-08T07:10:12.086Z,952.44
2022-11-08T07:11:12.077Z,952.43
2022-11-08T07:12:12.062Z,952.44
2022-11-08T07:13:12.042Z,952.45
2022-11-08T07:14:12.026Z,952.44
2022-11-08T07:15:12.016Z,952.47
2022-11-08T07:16:11.998Z,952.43
2022-11-08T07:17:12.009Z,952.41
2022-11-08T07:18:12.057Z,952.41
2022-11-08T07:19:11.953Z,952.36
2022-11-08T07:20:11.936Z,952.39
2022-11-08T07:21:11.924Z,952.43
2022-11-08T07:22:11.911Z,952.38
2022-11-08T07:23:11.897Z,952.42
2022-11-08T07:24:11.877Z,952.42
2022-11-08T07:25:11.865Z,952.42
2022-11-08T07:26:11.851Z,952.45
2022-11-08T07:27:11.837Z,952.42
2022-11-08T07:28:11.820Z,952.34
2022-11-08T07:29:15.766Z,952.39
2022-11-08T07:30:11.795Z,952.37
2022-11-08T07:31:11.779Z,952.33
2022-11-08T07:32:11.763Z,952.4
2022-11-08T07:33:11.775Z,952.39
2022-11-08T07:34:11.733Z,952.35
2022-11-08T07:35:11.721Z,952.35
2022-11-08T07:36:11.703Z,952.37
2022-11-08T07:37:11.691Z,952.37
2022-11-08T07:38:11.675Z,952.41
2022-11-08T07:39:11.663Z,952.28
2022-11-08T07:40:11.646Z,952.32
2022-11-08T07:41:11.639Z,952.3
2022-11-08T07:42:11.616Z,952.3
2022-11-08T07:43:13.033Z,952.29
2022-11-08T07:44:11.587Z,952.29
2022-11-08T07:45:11.577Z,952.31
2022-11-08T07:46:11.559Z,952.35
2022-11-08T07:47:11.545Z,952.32
2022-11-08T07:48:12.781Z,952.36
2022-11-08T07:49:11.599Z,952.31
2022-11-08T07:50:13.405Z,952.29
2022-11-08T07:51:11.487Z,952.32
2022-11-08T07:52:11.472Z,952.37
2022-11-08T07:53:11.458Z,952.36
2022-11-08T07:54:11.443Z,952.35
2022-11-08T07:55:11.431Z,952.34
2022-11-08T07:56:11.413Z,952.4
2022-11-08T07:57:11.400Z,952.38
2022-11-08T07:58:11.388Z,952.4
2022-11-08T07:59:11.376Z,952.37
2022-11-08T08:00:11.356Z,952.41
2022-11-08T08:01:11.342Z,952.39
2022-11-08T08:02:11.353Z,952.38
2022-11-08T08:03:11.376Z,952.36
2022-11-08T08:04:11.297Z,952.47
2022-11-08T08:05:11.312Z,952.42
2022-11-08T08:06:11.280Z,952.43
2022-11-08T08:07:11.258Z,952.4
2022-11-08T08:08:11.242Z,952.41
2022-11-08T08:09:11.226Z,952.45
2022-11-08T08:10:11.213Z,952.42
2022-11-08T08:11:11.201Z,952.45
2022-11-08T08:12:11.186Z,952.46
2022-11-08T08:13:11.170Z,952.44
2022-11-08T08:14:11.157Z,952.46
2022-11-08T08:15:11.140Z,952.46
2022-11-08T08:16:11.128Z,952.45
2022-11-08T08:17:11.112Z,952.47
2022-11-08T08:18:11.099Z,952.48
2022-11-08T08:19:11.085Z,952.44
2022-11-08T08:20:11.071Z,952.44
2022-11-08T08:21:11.196Z,952.46
2022-11-08T08:22:11.043Z,952.47
2022-11-08T08:23:11.027Z,952.42
2022-11-08T08:24:11.013Z,952.43
2022-11-08T08:25:11.008Z,952.44
2022-11-08T08:26:10.985Z,952.45
2022-11-08T08:27:10.969Z,952.41
2022-11-08T08:28:10.956Z,952.41
2022-11-08T08:29:10.943Z,952.39
2022-11-08T08:30:10.928Z,952.37
2022-11-08T08:31:10.917Z,952.46
2022-11-08T08:32:10.901Z,952.45
2022-11-08T08:34:10.875Z,952.37
2022-11-08T08:35:10.861Z,952.4
2022-11-08T08:36:10.847Z,952.36
2022-11-08T08:37:10.854Z,952.33
2022-11-08T08:38:10.819Z,952.32
2022-11-08T08:39:10.803Z,952.32
2022-11-08T08:40:10.792Z,952.33
2022-11-08T08:41:10.775Z,952.31
2022-11-08T08:42:10.770Z,952.33
2022-11-08T08:43:10.747Z,952.34
2022-11-08T08:44:10.737Z,952.39
2022-11-08T08:45:14.605Z,952.37
2022-11-08T08:46:10.708Z,952.34
2022-11-08T08:47:10.703Z,952.4
2022-11-08T08:48:10.679Z,952.41
2022-11-08T08:49:10.665Z,952.39
2022-11-08T08:50:10.654Z,952.46
2022-11-08T08:51:10.638Z,952.39
2022-11-08T08:52:10.627Z,952.39
2022-11-08T08:53:10.770Z,952.37
2022-11-08T08:54:10.600Z,952.4
2022-11-08T08:55:10.585Z,952.42
2022-11-08T08:56:10.572Z,952.43
2022-11-08T08:57:10.558Z,952.4
2022-11-08T08:58:10.546Z,952.45
2022-11-08T09:01:49.812Z,952.51
2022-11-08T09:02:49.799Z,952.5
2022-11-08T09:03:49.785Z,952.53
2022-11-08T09:04:49.773Z,952.49
2022-11-08T09:05:49.757Z,952.46
2022-11-08T09:06:49.842Z,952.44
2022-11-08T09:07:49.732Z,952.41
2022-11-08T09:08:49.746Z,952.43
2022-11-08T09:09:49.705Z,952.44
2022-11-08T09:10:49.696Z,952.42
2022-11-08T09:11:49.679Z,952.41
2022-11-08T09:12:49.667Z,952.4
2022-11-08T09:13:49.659Z,952.4
2022-11-08T09:14:49.644Z,952.4
2022-11-08T09:15:49.627Z,952.38
2022-11-08T09:16:49.616Z,952.38
2022-11-08T09:17:49.603Z,952.36
2022-11-08T09:18:49.676Z,952.37
2022-11-08T09:19:53.090Z,952.4
2022-11-08T09:20:49.565Z,952.36
2022-11-08T09:21:49.596Z,952.35
2022-11-08T09:22:49.539Z,952.37
2022-11-08T09:23:49.526Z,952.33
2022-11-08T09:24:49.546Z,952.35
2022-11-08T09:25:49.502Z,952.31
2022-11-08T09:26:49.491Z,952.33
2022-11-08T09:27:49.475Z,952.38
2022-11-08T09:28:49.474Z,952.36
2022-11-08T09:29:49.451Z,952.46
2022-11-08T09:30:49.440Z,952.41
2022-11-08T09:31:49.427Z,952.42
2022-11-08T09:33:04.963Z,952.36
2022-11-08T09:33:49.404Z,952.3
2022-11-08T09:34:49.458Z,952.28
2022-11-08T09:35:49.378Z,952.27
2022-11-08T09:36:49.371Z,952.24
2022-11-08T09:37:49.806Z,952.25
2022-11-08T09:38:49.346Z,952.13
2022-11-08T09:39:49.329Z,952.17
2022-11-08T09:40:49.348Z,952.16
2022-11-08T09:41:50.221Z,952.13
2022-11-08T09:42:49.295Z,952.13
2022-11-08T09:43:49.285Z,952.12
2022-11-08T09:44:49.274Z,952.11
2022-11-08T09:45:49.260Z,952.12
2022-11-08T09:46:49.247Z,952.1
2022-11-08T09:47:52.021Z,952.07
2022-11-08T09:48:49.226Z,952.04
2022-11-08T09:49:49.212Z,952
2022-11-08T09:50:49.199Z,952.1
2022-11-08T09:51:49.191Z,952
2022-11-08T09:52:49.177Z,952.02
2022-11-08T09:53:49.170Z,952.01
2022-11-08T09:54:49.155Z,952
2022-11-08T09:55:49.142Z,951.96
2022-11-08T09:56:49.159Z,951.97
2022-11-08T09:57:49.122Z,951.9
2022-11-08T09:58:49.107Z,951.89
2022-11-08T09:59:49.097Z,951.93
2022-11-08T10:00:49.082Z,951.94
2022-11-08T10:01:49.140Z,951.91
2022-11-08T10:02:49.063Z,951.92
2022-11-08T10:03:49.052Z,951.88
2022-11-08T10:04:49.038Z,951.86
2022-11-08T10:05:49.026Z,951.88
2022-11-08T10:06:49.080Z,951.88
2022-11-08T10:07:49.003Z,951.98
2022-11-08T10:08:48.998Z,951.94
2022-11-08T10:09:48.983Z,951.91
2022-11-08T10:10:48.969Z,951.92
2022-11-08T10:11:48.961Z,951.86
2022-11-08T10:12:48.969Z,951.89
2022-11-08T10:13:48.936Z,951.85
2022-11-08T10:14:53.684Z,951.84
2022-11-08T10:15:48.920Z,951.77
2022-11-08T10:16:48.902Z,951.78
2022-11-08T10:17:48.895Z,951.75
2022-11-08T10:18:48.881Z,951.84
2022-11-08T10:19:48.871Z,951.81
2022-11-08T10:20:48.858Z,951.79
2022-11-08T10:21:48.849Z,951.75
2022-11-08T10:22:48.840Z,951.79
2022-11-08T10:23:48.827Z,951.76
2022-11-08T10:24:48.815Z,951.78
2022-11-08T10:25:48.805Z,951.62
2022-11-08T10:26:48.795Z,951.66
2022-11-08T10:27:48.786Z,951.7
2022-11-08T10:28:48.859Z,951.77
2022-11-08T10:29:48.762Z,951.72
2022-11-08T10:30:48.756Z,951.61
2022-11-08T10:31:48.749Z,951.68
2022-11-08T10:32:48.733Z,951.65
2022-11-08T10:33:48.725Z,951.64
2022-11-08T10:34:48.711Z,951.65
2022-11-08T10:35:48.702Z,951.68
2022-11-08T10:36:48.688Z,951.73
2022-11-08T10:37:48.678Z,951.79
2022-11-08T10:38:48.668Z,951.8
2022-11-08T10:39:48.657Z,951.79
2022-11-08T10:40:48.649Z,951.87
2022-11-08T10:41:48.641Z,951.8
2022-11-08T10:42:48.627Z,951.88
2022-11-08T10:43:48.615Z,951.92
2022-11-08T10:44:48.740Z,951.95
2022-11-08T10:45:48.593Z,951.9
2022-11-08T10:46:48.585Z,951.9
2022-11-08T10:47:48.572Z,951.97
2022-11-08T10:48:48.563Z,951.95
2022-11-08T10:49:48.554Z,951.93
2022-11-08T10:50:48.545Z,951.91
2022-11-08T10:51:48.532Z,951.89
2022-11-08T10:52:48.523Z,951.87
2022-11-08T10:53:48.512Z,951.92
2022-11-08T10:54:48.502Z,951.91
2022-11-08T10:55:48.492Z,951.86
2022-11-08T10:56:48.482Z,951.84
2022-11-08T10:57:48.469Z,951.85
2022-11-08T10:58:48.460Z,951.79
2022-11-08T10:59:48.450Z,951.83
2022-11-08T11:00:48.464Z,951.83
2022-11-08T11:01:48.445Z,951.83
2022-11-08T11:02:48.423Z,951.82
2022-11-08T11:03:48.409Z,951.81
2022-11-08T11:04:48.402Z,951.76
2022-11-08T11:05:48.388Z,951.8
2022-11-08T11:06:48.426Z,951.73
2022-11-08T11:07:48.416Z,951.76
2022-11-08T11:08:48.362Z,951.74
2022-11-08T11:09:48.346Z,951.73
2022-11-08T11:10:49.253Z,951.71
2022-11-08T11:11:49.235Z,951.68
2022-11-08T11:12:49.226Z,951.68
2022-11-08T11:13:49.215Z,951.68
2022-11-08T11:14:49.206Z,951.7
2022-11-08T11:15:49.197Z,951.68
2022-11-08T11:16:49.220Z,951.73
2022-11-08T11:17:49.178Z,951.68
2022-11-08T11:18:49.167Z,951.72
2022-11-08T11:19:49.155Z,951.8
2022-11-08T11:20:49.146Z,951.66
2022-11-08T11:21:49.133Z,951.59
2022-11-08T11:22:49.123Z,951.61
2022-11-08T11:23:49.113Z,951.67
2022-11-08T11:24:49.104Z,951.64
2022-11-08T11:25:49.092Z,951.58
2022-11-08T11:26:49.086Z,951.54
2022-11-08T11:27:49.073Z,951.56
2022-11-08T11:28:49.067Z,951.55
2022-11-08T11:29:49.054Z,951.52
2022-11-08T11:30:49.045Z,951.51
2022-11-08T11:31:49.033Z,951.53
2022-11-08T11:32:49.709Z,951.53
2022-11-08T11:33:49.653Z,951.49
2022-11-08T11:34:49.643Z,951.48
2022-11-08T11:35:49.634Z,951.46
2022-11-08T11:36:49.623Z,951.43
2022-11-08T11:37:49.613Z,951.41
2022-11-08T11:38:49.601Z,951.4
2022-11-08T11:39:49.606Z,951.42
2022-11-08T11:40:49.626Z,951.47
2022-11-08T11:41:49.570Z,951.42
2022-11-08T11:42:49.559Z,951.33
2022-11-08T11:43:49.555Z,951.29
2022-11-08T11:44:49.540Z,951.32
2022-11-08T11:45:49.531Z,951.35
2022-11-08T11:46:49.521Z,951.24
2022-11-08T11:47:49.515Z,951.19
2022-11-08T11:48:49.637Z,951.17
2022-11-08T11:49:49.495Z,951.22
2022-11-08T11:50:49.598Z,951.22
2022-11-08T11:51:49.523Z,951.29
2022-11-08T11:52:49.462Z,951.17
2022-11-08T11:53:49.462Z,951.17
2022-11-08T11:54:49.851Z,951.21
2022-11-08T11:55:49.839Z,951.24
2022-11-08T11:56:49.828Z,951.26
2022-11-08T11:57:49.821Z,951.16
2022-11-08T11:58:49.811Z,951.15
2022-11-08T11:59:49.799Z,951.16
2022-11-08T12:00:49.790Z,951.18
2022-11-08T12:01:49.854Z,951.12
2022-11-08T12:02:49.772Z,951.04
2022-11-08T12:03:49.764Z,951.17
2022-11-08T12:04:49.787Z,951.05
2022-11-08T12:05:49.750Z,951.13
2022-11-08T12:06:49.776Z,951.13
2022-11-08T12:07:49.721Z,951.16
2022-11-08T12:08:49.709Z,951.11
2022-11-08T12:09:49.701Z,951.13
2022-11-08T12:10:49.690Z,951.06
2022-11-08T12:11:49.693Z,950.92
2022-11-08T12:12:49.671Z,950.94
2022-11-08T12:13:54.071Z,950.95
2022-11-08T12:14:49.649Z,950.96
2022-11-08T12:15:49.643Z,950.97
2022-11-08T12:16:49.632Z,950.95
2022-11-08T12:17:49.624Z,950.99
2022-11-08T12:18:49.976Z,951
2022-11-08T12:19:49.602Z,950.99
2022-11-08T12:20:49.689Z,951.02
2022-11-08T12:21:49.582Z,951.05
2022-11-08T12:22:49.572Z,951.02
2022-11-08T12:23:49.567Z,951.1
2022-11-08T12:24:49.551Z,951.06
2022-11-08T12:25:49.541Z,951.02
2022-11-08T12:26:49.531Z,951.03
2022-11-08T12:27:49.520Z,950.97
2022-11-08T12:28:49.515Z,950.92
2022-11-08T12:29:49.503Z,950.95
2022-11-08T12:30:49.493Z,950.84
2022-11-08T12:31:49.481Z,950.93
2022-11-08T12:32:49.475Z,950.88
2022-11-08T12:33:51.707Z,951.02
2022-11-08T12:34:49.503Z,950.95
2022-11-08T12:35:49.446Z,950.98
2022-11-08T12:36:49.462Z,951
2022-11-08T12:37:49.434Z,951.06
2022-11-08T12:38:49.427Z,950.99
2022-11-08T12:39:49.415Z,950.99
2022-11-08T12:40:49.410Z,950.95
2022-11-08T12:41:49.405Z,950.86
2022-11-08T12:42:49.378Z,950.79
2022-11-08T12:43:49.365Z,950.81
2022-11-08T12:44:49.358Z,950.92
2022-11-08T12:45:49.345Z,950.88
2022-11-08T12:46:49.339Z,950.9
2022-11-08T12:47:49.329Z,950.94
2022-11-08T12:48:49.316Z,950.93
2022-11-08T12:49:49.308Z,950.91